createdAt,value
2023-03-04T00:00:00.101Z,16.01
2023-03-04T00:01:03.283Z,15.39
2023-03-04T00:02:05.497Z,14.38
2023-03-04T00:03:07.463Z,14.61
2023-03-04T00:04:09.923Z,15.06
2023-03-04T00:05:12.455Z,15.01
2023-03-04T00:06:15.098Z,14.45
2023-03-04T00:07:17.167Z,14.97
2023-03-04T00:08:19.155Z,15.07
2023-03-04T00:09:21.402Z,14.85
2023-03-04T00:10:23.390Z,15.69
2023-03-04T00:11:26.323Z,14.51
2023-03-04T00:12:28.218Z,14.87
2023-03-04T00:13:31.112Z,14.91
2023-03-04T00:14:33.001Z,15.61
2023-03-04T00:15:34.939Z,14.24
2023-03-04T00:16:37.152Z,16.03
2023-03-04T00:17:39.491Z,15.34
2023-03-04T00:18:41.492Z,14.27
2023-03-04T00:19:43.366Z,15.55
2023-03-04T00:20:45.481Z,15.29
2023-03-04T00:21:47.371Z,15.65
2023-03-04T00:22:49.370Z,14.91
2023-03-04T00:23:51.404Z,14.49
2023-03-04T00:24:53.291Z,13.58
2023-03-04T00:25:55.165Z,13.86
2023-03-04T00:26:57.141Z,14.33
2023-03-04T00:27:59.384Z,14.18
2023-03-04T00:29:01.441Z,15.38
2023-03-04T00:30:05.914Z,15.17
2023-03-04T00:31:09.222Z,16.16
2023-03-04T00:32:11.337Z,17.06
2023-03-04T00:33:13.348Z,17.66
2023-03-04T00:34:15.223Z,17.17
2023-03-04T00:35:18.579Z,15.79
2023-03-04T00:36:20.855Z,18.71
2023-03-04T00:37:23.869Z,21.85
2023-03-04T00:38:26.301Z,19.92
2023-03-04T00:39:28.372Z,20.91
2023-03-04T00:40:30.552Z,22.31
2023-03-04T00:41:32.429Z,21.95
2023-03-04T00:42:34.312Z,18.36
2023-03-04T00:43:36.202Z,20.67
2023-03-04T00:44:38.785Z,20.48
2023-03-04T00:45:41.491Z,22.64
2023-03-04T00:46:43.609Z,21.89
2023-03-04T00:47:45.503Z,22.75
2023-03-04T00:48:47.372Z,21.01
2023-03-04T00:49:49.559Z,20.89
2023-03-04T00:50:51.662Z,20.13
2023-03-04T00:51:54.290Z,19.85
2023-03-04T00:52:56.205Z,18.82
2023-03-04T00:54:00.689Z,19.53
2023-03-04T00:55:02.332Z,22.41
2023-03-04T00:56:05.665Z,21.89
2023-03-04T00:57:07.954Z,20.06
2023-03-04T00:58:09.973Z,33.38
2023-03-04T00:59:12.159Z,26.40
2023-03-04T01:00:15.189Z,33.87
2023-03-04T01:01:17.216Z,24.87
2023-03-04T01:02:19.379Z,23.76
2023-03-04T01:03:21.512Z,27.58
2023-03-04T01:04:23.507Z,28.03
2023-03-04T01:05:25.753Z,25.51
2023-03-04T01:06:28.175Z,24.86
2023-03-04T01:07:30.136Z,24.44
2023-03-04T01:08:32.017Z,22.51
2023-03-04T01:09:35.651Z,24.13
2023-03-04T01:10:37.865Z,22.96
2023-03-04T01:11:39.881Z,20.16
2023-03-04T01:12:42.451Z,20.62
2023-03-04T01:13:46.447Z,20.24
2023-03-04T01:14:48.502Z,16.86
2023-03-04T01:15:50.428Z,17.17
2023-03-04T01:16:53.754Z,16.71
2023-03-04T01:17:56.711Z,17.57
2023-03-04T01:18:58.840Z,19.19
2023-03-04T01:20:01.107Z,20.22
2023-03-04T01:21:04.005Z,20.74
2023-03-04T01:22:06.009Z,22.64
2023-03-04T01:23:07.900Z,19.07
2023-03-04T01:24:12.031Z,19.11
2023-03-04T01:25:14.083Z,19.37
2023-03-04T01:26:17.759Z,19.19
2023-03-04T01:27:19.701Z,18.02
2023-03-04T01:28:21.611Z,20.01
2023-03-04T01:29:24.229Z,17.94
2023-03-04T01:30:26.455Z,17.08
2023-03-04T01:31:28.353Z,20.15
2023-03-04T01:32:30.301Z,19.99
2023-03-04T01:33:35.008Z,21.17
2023-03-04T01:34:37.027Z,18.16
2023-03-04T01:35:39.098Z,18.10
2023-03-04T01:36:41.456Z,17.74
2023-03-04T01:37:44.244Z,17.55
2023-03-04T01:38:46.137Z,18.04
2023-03-04T01:39:48.271Z,17.79
2023-03-04T01:40:51.216Z,16.73
2023-03-04T01:41:53.514Z,19.15
2023-03-04T01:42:55.681Z,18.65
2023-03-04T01:43:59.901Z,17.38
2023-03-04T01:45:03.461Z,16.79
2023-03-04T01:46:06.625Z,16.84
2023-03-04T01:47:09.630Z,15.20
2023-03-04T01:48:15.331Z,16.94
2023-03-04T01:49:18.006Z,20.12
2023-03-04T01:50:29.980Z,16.89
2023-03-04T01:51:32.748Z,22.79
2023-03-04T01:52:37.297Z,18.83
2023-03-04T01:53:39.677Z,18.19
2023-03-04T01:54:41.752Z,18.85
2023-03-04T01:55:43.638Z,16.51
2023-03-04T01:56:47.905Z,16.67
2023-03-04T01:57:52.621Z,19.21
2023-03-04T01:59:10.822Z,19.07
2023-03-04T02:00:26.048Z,20.95
2023-03-04T02:01:28.895Z,21.07
2023-03-04T02:02:30.857Z,19.87
2023-03-04T02:03:32.934Z,19.56
2023-03-04T02:04:35.197Z,20.49
2023-03-04T02:05:40.640Z,19.00
2023-03-04T02:06:44.155Z,18.57
2023-03-04T02:07:46.241Z,18.11
2023-03-04T02:08:48.228Z,18.31
2023-03-04T02:09:50.205Z,20.13
2023-03-04T02:10:54.211Z,17.46
2023-03-04T02:11:57.297Z,17.31
2023-03-04T02:13:00.684Z,17.49
2023-03-04T02:14:03.482Z,17.82
2023-03-04T02:15:07.794Z,17.73
2023-03-04T02:16:11.484Z,16.56
2023-03-04T02:17:14.355Z,14.86
2023-03-04T02:18:21.341Z,16.60
2023-03-04T02:19:42.369Z,18.22
2023-03-04T02:21:09.199Z,20.84
2023-03-04T02:22:11.231Z,15.29
2023-03-04T02:23:22.750Z,17.17
2023-03-04T02:24:32.540Z,15.59
2023-03-04T02:25:41.038Z,14.99
2023-03-04T02:26:45.004Z,14.56
2023-03-04T02:27:47.235Z,15.49
2023-03-04T02:28:51.747Z,14.72
2023-03-04T02:29:54.061Z,14.81
2023-03-04T02:30:56.060Z,15.36
2023-03-04T02:31:58.263Z,13.87
2023-03-04T02:33:00.463Z,14.81
2023-03-04T02:35:17.655Z,14.03
2023-03-04T02:36:21.492Z,15.72
2023-03-04T02:37:24.493Z,16.05
2023-03-04T02:38:26.900Z,17.86
2023-03-04T02:39:35.328Z,17.79
2023-03-04T02:40:40.350Z,21.08
2023-03-04T02:41:44.595Z,23.14
2023-03-04T02:42:47.571Z,18.91
2023-03-04T02:43:52.809Z,21.39
2023-03-04T02:45:00.960Z,21.29
2023-03-04T02:46:03.326Z,19.54
2023-03-04T02:47:08.380Z,18.41
2023-03-04T02:48:11.691Z,18.37
2023-03-04T02:49:15.116Z,20.09
2023-03-04T02:50:17.701Z,19.06
2023-03-04T02:51:20.917Z,20.50
2023-03-04T02:52:26.033Z,20.75
2023-03-04T02:53:28.052Z,19.35
2023-03-04T02:54:30.655Z,19.81
2023-03-04T02:55:33.450Z,19.52
2023-03-04T02:56:36.318Z,18.47
2023-03-04T02:57:38.186Z,20.61
2023-03-04T02:58:40.093Z,20.46
2023-03-04T02:59:42.789Z,19.60
2023-03-04T03:00:45.043Z,20.54
2023-03-04T03:01:48.588Z,20.73
2023-03-04T03:02:51.843Z,21.56
2023-03-04T03:03:53.905Z,22.24
2023-03-04T03:04:56.124Z,22.71
2023-03-04T03:05:58.138Z,23.81
2023-03-04T03:07:00.221Z,22.45
2023-03-04T03:08:02.499Z,20.97
2023-03-04T03:09:05.676Z,21.45
2023-03-04T03:10:09.477Z,22.20
2023-03-04T03:11:11.591Z,22.26
2023-03-04T03:12:13.473Z,21.37
2023-03-04T03:13:15.347Z,20.62
2023-03-04T03:14:17.410Z,21.82
2023-03-04T03:15:20.361Z,21.03
2023-03-04T03:16:23.002Z,21.60
2023-03-04T03:17:25.315Z,25.14
2023-03-04T03:18:27.205Z,25.60
2023-03-04T03:19:29.258Z,26.61
2023-03-04T03:20:31.441Z,25.83
2023-03-04T03:21:33.630Z,24.35
2023-03-04T03:22:35.668Z,26.01
2023-03-04T03:23:38.336Z,25.31
2023-03-04T03:24:40.542Z,25.17
2023-03-04T03:25:42.439Z,23.59
2023-03-04T03:26:45.508Z,25.42
2023-03-04T03:27:47.416Z,26.41
2023-03-04T03:28:50.316Z,25.48
2023-03-04T03:29:52.489Z,29.21
2023-03-04T03:30:54.472Z,28.15
2023-03-04T03:31:56.599Z,29.48
2023-03-04T03:33:00.408Z,31.74
2023-03-04T03:34:02.342Z,26.23
2023-03-04T03:35:07.138Z,26.33
2023-03-04T03:36:09.706Z,25.61
2023-03-04T03:37:12.153Z,28.71
2023-03-04T03:38:14.056Z,28.29
2023-03-04T03:39:15.947Z,26.78
2023-03-04T03:40:19.381Z,26.82
2023-03-04T03:41:21.313Z,23.96
2023-03-04T03:42:24.140Z,26.14
2023-03-04T03:43:26.715Z,24.12
2023-03-04T03:44:29.555Z,26.49
2023-03-04T03:45:33.369Z,26.60
2023-03-04T03:46:35.505Z,27.18
2023-03-04T03:47:37.606Z,24.35
2023-03-04T03:48:39.504Z,25.19
2023-03-04T03:49:41.615Z,23.80
2023-03-04T03:50:43.892Z,23.49
2023-03-04T03:51:45.910Z,25.43
2023-03-04T03:52:47.778Z,23.99
2023-03-04T03:53:49.682Z,24.49
2023-03-04T03:54:51.771Z,24.33
2023-03-04T03:55:54.380Z,23.39
2023-03-04T03:56:56.499Z,23.54
2023-03-04T03:57:58.777Z,27.94
2023-03-04T03:59:01.535Z,25.41
2023-03-04T04:00:06.086Z,25.91
2023-03-04T04:01:08.030Z,26.92
2023-03-04T04:02:10.216Z,24.70
2023-03-04T04:03:15.784Z,24.99
2023-03-04T04:04:17.739Z,24.01
2023-03-04T04:05:20.316Z,24.83
2023-03-04T04:06:23.096Z,25.00
2023-03-04T04:07:24.971Z,26.63
2023-03-04T04:08:27.694Z,29.35
2023-03-04T04:09:30.494Z,27.69
2023-03-04T04:10:32.646Z,28.02
2023-03-04T04:11:36.134Z,26.91
2023-03-04T04:12:39.248Z,24.34
2023-03-04T04:13:43.412Z,23.99
2023-03-04T04:14:45.726Z,23.42
2023-03-04T04:15:47.649Z,25.74
2023-03-04T04:16:49.918Z,28.51
2023-03-04T04:17:52.014Z,25.23
2023-03-04T04:18:54.714Z,26.52
2023-03-04T04:19:56.720Z,30.46
2023-03-04T04:20:58.733Z,30.60
2023-03-04T04:22:01.960Z,24.73
2023-03-04T04:23:03.954Z,23.97
2023-03-04T04:24:05.831Z,23.90
2023-03-04T04:25:08.234Z,25.51
2023-03-04T04:26:11.131Z,25.96
2023-03-04T04:27:13.064Z,27.31
2023-03-04T04:28:15.252Z,25.96
2023-03-04T04:29:17.364Z,26.73
2023-03-04T04:30:20.745Z,26.41
2023-03-04T04:31:22.770Z,24.88
2023-03-04T04:32:24.833Z,24.10
2023-03-04T04:33:27.480Z,25.47
2023-03-04T04:34:29.737Z,25.95
2023-03-04T04:35:33.701Z,26.82
2023-03-04T04:36:36.116Z,27.10
2023-03-04T04:37:38.155Z,26.46
2023-03-04T04:38:40.097Z,28.84
2023-03-04T04:39:42.115Z,27.67
2023-03-04T04:40:44.417Z,27.12
2023-03-04T04:41:46.674Z,26.77
2023-03-04T04:42:48.657Z,27.13
2023-03-04T04:43:51.593Z,24.29
2023-03-04T04:44:53.951Z,26.36
2023-03-04T04:45:58.894Z,26.83
2023-03-04T04:47:01.175Z,27.09
2023-03-04T04:48:03.489Z,24.12
2023-03-04T04:49:05.911Z,25.81
2023-03-04T04:50:09.615Z,25.26
2023-03-04T04:51:11.708Z,25.76
2023-03-04T04:52:13.739Z,23.91
2023-03-04T04:53:16.031Z,26.08
2023-03-04T04:54:18.118Z,25.20
2023-03-04T04:55:20.115Z,27.68
2023-03-04T04:56:26.332Z,24.69
2023-03-04T04:57:28.328Z,24.01
2023-03-04T04:58:30.196Z,23.55
2023-03-04T04:59:32.189Z,25.19
2023-03-04T05:00:34.600Z,24.60
2023-03-04T05:01:36.731Z,25.09
2023-03-04T05:02:38.692Z,27.21
2023-03-04T05:03:41.480Z,24.83
2023-03-04T05:04:43.726Z,25.02
2023-03-04T05:05:45.601Z,25.00
2023-03-04T05:06:47.678Z,27.19
2023-03-04T05:07:49.676Z,27.00
2023-03-04T05:08:51.940Z,26.69
2023-03-04T05:09:53.950Z,26.51
2023-03-04T05:10:56.139Z,25.45
2023-03-04T05:11:58.395Z,25.19
2023-03-04T05:13:00.387Z,24.82
2023-03-04T05:14:02.665Z,26.15
2023-03-04T05:15:05.670Z,27.19
2023-03-04T05:16:08.417Z,26.37
2023-03-04T05:17:10.456Z,26.93
2023-03-04T05:18:12.482Z,27.93
2023-03-04T05:19:14.379Z,27.13
2023-03-04T05:20:17.171Z,28.27
2023-03-04T05:21:19.072Z,26.65
2023-03-04T05:22:21.149Z,26.54
2023-03-04T05:23:24.311Z,25.72
2023-03-04T05:24:26.212Z,26.29
2023-03-04T05:25:28.516Z,26.68
2023-03-04T05:26:30.606Z,26.11
2023-03-04T05:27:33.877Z,25.09
2023-03-04T05:28:36.223Z,26.43
2023-03-04T05:29:38.162Z,26.14
2023-03-04T05:30:41.831Z,30.88
2023-03-04T05:31:44.222Z,34.80
2023-03-04T05:32:46.298Z,27.09
2023-03-04T05:33:48.384Z,25.03
2023-03-04T05:34:52.785Z,26.59
2023-03-04T05:35:55.788Z,31.11
2023-03-04T05:36:58.133Z,34.24
2023-03-04T05:38:00.567Z,24.68
2023-03-04T05:39:03.752Z,25.57
2023-03-04T05:40:07.556Z,23.91
2023-03-04T05:41:09.565Z,23.80
2023-03-04T05:42:11.457Z,22.51
2023-03-04T05:43:13.968Z,21.97
2023-03-04T05:44:16.139Z,22.39
2023-03-04T05:45:18.355Z,21.91
2023-03-04T05:46:20.695Z,22.13
2023-03-04T05:47:22.820Z,21.51
2023-03-04T05:48:24.975Z,22.96
2023-03-04T05:49:26.867Z,21.12
2023-03-04T05:50:29.742Z,21.85
2023-03-04T05:51:31.818Z,22.27
2023-03-04T05:52:33.890Z,21.96
2023-03-04T05:53:37.569Z,22.80
2023-03-04T05:54:39.720Z,22.96
2023-03-04T05:55:45.367Z,21.60
2023-03-04T05:56:47.590Z,21.36
2023-03-04T05:57:49.630Z,22.11
2023-03-04T05:58:51.678Z,21.73
2023-03-04T05:59:53.794Z,21.58
2023-03-04T06:01:01.953Z,20.91
2023-03-04T06:02:03.985Z,22.28
2023-03-04T06:03:06.190Z,22.80
2023-03-04T06:04:08.137Z,23.06
2023-03-04T06:05:13.216Z,22.50
2023-03-04T06:06:15.957Z,23.72
2023-03-04T06:07:17.944Z,21.20
2023-03-04T06:08:21.467Z,22.13
2023-03-04T06:09:24.181Z,22.64
2023-03-04T06:10:26.401Z,22.68
2023-03-04T06:11:28.586Z,22.87
2023-03-04T06:12:30.563Z,21.73
2023-03-04T06:13:33.883Z,22.19
2023-03-04T06:14:36.075Z,22.86
2023-03-04T06:15:39.445Z,22.51
2023-03-04T06:16:41.602Z,21.93
2023-03-04T06:17:43.518Z,20.91
2023-03-04T06:18:46.628Z,22.19
2023-03-04T06:19:48.667Z,22.76
2023-03-04T06:20:51.054Z,20.23
2023-03-04T06:21:52.963Z,21.21
2023-03-04T06:22:54.942Z,23.35
2023-03-04T06:23:56.930Z,21.57
2023-03-04T06:24:58.824Z,20.89
2023-03-04T06:26:01.392Z,21.33
2023-03-04T06:27:03.777Z,19.69
2023-03-04T06:28:06.245Z,21.03
2023-03-04T06:29:09.018Z,20.65
2023-03-04T06:30:12.345Z,20.81
2023-03-04T06:31:15.225Z,20.55
2023-03-04T06:32:18.611Z,21.49
2023-03-04T06:33:21.758Z,20.02
2023-03-04T06:34:23.763Z,20.67
2023-03-04T06:35:25.776Z,21.65
2023-03-04T06:36:28.311Z,20.79
2023-03-04T06:37:30.212Z,22.01
2023-03-04T06:38:32.861Z,21.39
2023-03-04T06:39:34.787Z,20.84
2023-03-04T06:40:38.054Z,21.98
2023-03-04T06:41:40.443Z,21.93
2023-03-04T06:42:43.019Z,22.38
2023-03-04T06:43:45.023Z,22.77
2023-03-04T06:44:49.469Z,21.07
2023-03-04T06:45:52.244Z,22.14
2023-03-04T06:46:54.599Z,19.78
2023-03-04T06:47:56.571Z,22.79
2023-03-04T06:48:58.487Z,21.97
2023-03-04T06:50:00.752Z,21.66
2023-03-04T06:51:10.850Z,20.93
2023-03-04T06:52:12.974Z,21.51
2023-03-04T06:53:15.959Z,21.46
2023-03-04T06:54:18.548Z,21.19
2023-03-04T06:55:20.600Z,20.80
2023-03-04T06:56:23.030Z,21.61
2023-03-04T06:57:25.063Z,20.43
2023-03-04T06:58:26.971Z,21.29
2023-03-04T06:59:28.999Z,20.74
2023-03-04T07:00:31.710Z,19.33
2023-03-04T07:01:34.011Z,22.19
2023-03-04T07:02:36.410Z,21.71
2023-03-04T07:03:41.054Z,21.28
2023-03-04T07:04:43.251Z,21.97
2023-03-04T07:05:45.333Z,23.69
2023-03-04T07:06:47.895Z,22.21
2023-03-04T07:07:49.872Z,20.98
2023-03-04T07:08:52.436Z,21.19
2023-03-04T07:09:54.354Z,21.09
2023-03-04T07:10:56.476Z,21.47
2023-03-04T07:11:59.122Z,20.80
2023-03-04T07:13:01.359Z,21.39
2023-03-04T07:14:03.512Z,20.25
2023-03-04T07:15:06.591Z,20.83
2023-03-04T07:16:13.567Z,22.16
2023-03-04T07:17:15.749Z,20.41
2023-03-04T07:18:17.759Z,21.98
2023-03-04T07:19:20.263Z,20.84
2023-03-04T07:20:22.572Z,21.15
2023-03-04T07:21:25.018Z,21.77
2023-03-04T07:22:27.120Z,20.47
2023-03-04T07:23:30.281Z,20.48
2023-03-04T07:24:32.448Z,21.68
2023-03-04T07:25:35.645Z,20.05
2023-03-04T07:26:38.322Z,20.57
2023-03-04T07:27:40.346Z,20.55
2023-03-04T07:28:42.649Z,20.39
2023-03-04T07:29:44.652Z,21.03
2023-03-04T07:30:46.863Z,22.70
2023-03-04T07:31:49.210Z,22.79
2023-03-04T07:32:54.440Z,20.56
2023-03-04T07:35:15.854Z,21.76
2023-03-04T07:36:19.414Z,20.99
2023-03-04T07:37:21.550Z,21.99
2023-03-04T07:38:25.869Z,21.14
2023-03-04T07:39:28.976Z,20.56
2023-03-04T07:40:31.366Z,21.73
2023-03-04T07:41:34.187Z,19.81
2023-03-04T07:42:36.475Z,21.13
2023-03-04T07:43:38.716Z,20.59
2023-03-04T07:44:41.149Z,20.73
2023-03-04T07:45:43.343Z,21.69
2023-03-04T07:46:45.444Z,20.70
2023-03-04T07:47:48.061Z,21.04
2023-03-04T07:48:50.882Z,22.33
2023-03-04T07:49:53.052Z,22.79
2023-03-04T07:51:13.620Z,22.25
2023-03-04T07:52:16.045Z,20.91
2023-03-04T07:53:17.965Z,19.74
2023-03-04T07:54:19.965Z,22.29
2023-03-04T07:55:21.840Z,20.13
2023-03-04T07:56:27.503Z,21.47
2023-03-04T07:57:29.416Z,26.34
2023-03-04T07:58:31.902Z,22.63
2023-03-04T07:59:34.077Z,23.77
2023-03-04T08:00:36.108Z,36.43
2023-03-04T08:01:38.435Z,20.92
2023-03-04T08:02:41.974Z,19.29
2023-03-04T08:03:45.736Z,19.87
2023-03-04T08:04:47.855Z,21.78
2023-03-04T08:05:50.334Z,18.90
2023-03-04T08:06:52.535Z,21.05
2023-03-04T08:07:54.400Z,22.02
2023-03-04T08:08:59.336Z,21.63
2023-03-04T08:10:01.881Z,22.12
2023-03-04T08:11:10.108Z,21.50
2023-03-04T08:12:12.257Z,20.74
2023-03-04T08:13:14.368Z,20.17
2023-03-04T08:14:16.395Z,21.63
2023-03-04T08:15:19.598Z,25.93
2023-03-04T08:16:24.004Z,24.64
2023-03-04T08:17:25.998Z,24.57
2023-03-04T08:18:28.352Z,21.70
2023-03-04T08:19:30.489Z,20.80
2023-03-04T08:20:32.556Z,21.18
2023-03-04T08:21:34.448Z,22.87
2023-03-04T08:22:36.328Z,22.22
2023-03-04T08:23:39.617Z,22.19
2023-03-04T08:24:41.620Z,23.14
2023-03-04T08:25:45.036Z,21.41
2023-03-04T08:26:49.349Z,22.09
2023-03-04T08:27:52.116Z,22.82
2023-03-04T08:28:55.168Z,20.64
2023-03-04T08:29:57.254Z,21.69
2023-03-04T08:30:59.971Z,20.11
2023-03-04T08:32:02.034Z,21.52
2023-03-04T08:33:04.372Z,20.58
2023-03-04T08:34:06.814Z,22.69
2023-03-04T08:35:09.123Z,20.64
2023-03-04T08:36:12.904Z,21.69
2023-03-04T08:37:15.004Z,21.55
2023-03-04T08:38:17.305Z,22.37
2023-03-04T08:39:19.581Z,24.05
2023-03-04T08:40:22.512Z,23.84
2023-03-04T08:41:24.785Z,24.38
2023-03-04T08:42:27.034Z,22.83
2023-03-04T08:43:29.937Z,22.74
2023-03-04T08:44:31.947Z,23.62
2023-03-04T08:45:33.875Z,21.26
2023-03-04T08:47:51.227Z,20.78
2023-03-04T08:48:53.154Z,20.73
2023-03-04T08:49:55.258Z,22.63
2023-03-04T08:50:57.747Z,20.46
2023-03-04T08:51:59.640Z,21.95
2023-03-04T08:53:02.463Z,21.19
2023-03-04T08:54:05.975Z,20.38
2023-03-04T08:55:08.340Z,20.24
2023-03-04T08:56:12.695Z,20.31
2023-03-04T08:57:14.979Z,22.27
2023-03-04T08:58:17.647Z,21.51
2023-03-04T08:59:19.744Z,22.41
2023-03-04T09:00:22.236Z,20.65
2023-03-04T09:01:25.507Z,21.32
2023-03-04T09:02:28.913Z,19.06
2023-03-04T09:03:31.195Z,19.62
2023-03-04T09:04:33.741Z,20.77
2023-03-04T09:05:36.097Z,20.69
2023-03-04T09:06:40.524Z,21.32
2023-03-04T09:07:42.397Z,21.45
2023-03-04T09:08:45.348Z,19.79
2023-03-04T09:09:47.423Z,20.16
2023-03-04T09:10:52.378Z,20.52
2023-03-04T09:11:56.114Z,20.16
2023-03-04T09:12:58.229Z,20.91
2023-03-04T09:14:00.372Z,20.93
2023-03-04T09:15:11.226Z,20.36
2023-03-04T09:16:12.978Z,22.29
2023-03-04T09:17:14.953Z,21.44
2023-03-04T09:18:19.028Z,20.03
2023-03-04T09:19:20.953Z,22.46
2023-03-04T09:20:23.027Z,20.81
2023-03-04T09:21:25.292Z,21.60
2023-03-04T09:22:27.785Z,20.66
2023-03-04T09:23:31.187Z,20.25
2023-03-04T09:24:33.094Z,21.14
2023-03-04T09:25:36.363Z,20.11
2023-03-04T09:26:38.511Z,20.09
2023-03-04T09:27:41.011Z,21.39
2023-03-04T09:28:43.049Z,19.87
2023-03-04T09:29:44.913Z,20.90
2023-03-04T09:30:47.388Z,23.39
2023-03-04T09:31:50.931Z,21.32
2023-03-04T09:32:53.229Z,20.23
2023-03-04T09:33:57.491Z,20.61
2023-03-04T09:34:59.461Z,19.59
2023-03-04T09:36:01.433Z,19.16
2023-03-04T09:37:03.858Z,19.30
2023-03-04T09:38:06.935Z,20.05
2023-03-04T09:39:10.138Z,20.19
2023-03-04T09:40:15.950Z,19.29
2023-03-04T09:43:38.765Z,21.61
2023-03-04T09:44:43.468Z,20.56
2023-03-04T09:45:56.762Z,21.45
2023-03-04T09:47:05.804Z,19.22
2023-03-04T09:48:11.493Z,19.96
2023-03-04T09:49:14.498Z,20.48
2023-03-04T09:50:19.414Z,21.77
2023-03-04T09:51:24.623Z,18.88
2023-03-04T09:52:36.231Z,18.98
2023-03-04T09:53:44.491Z,19.59
2023-03-04T09:55:06.934Z,19.70
2023-03-04T09:56:10.781Z,21.63
2023-03-04T09:57:48.654Z,20.27
2023-03-04T09:59:00.120Z,19.39
2023-03-04T10:01:18.814Z,21.92
2023-03-04T10:02:30.771Z,21.21
2023-03-04T10:03:48.814Z,20.16
2023-03-04T10:04:53.987Z,19.66
2023-03-04T10:05:59.960Z,19.37
2023-03-04T10:07:03.083Z,20.84
2023-03-04T10:08:23.804Z,20.46
2023-03-04T10:09:41.628Z,18.99
2023-03-04T10:10:45.145Z,20.06
2023-03-04T10:11:51.046Z,22.05
2023-03-04T10:12:54.572Z,19.58
2023-03-04T10:14:20.215Z,19.72
2023-03-04T10:15:28.697Z,20.29
2023-03-04T10:16:37.535Z,19.53
2023-03-04T10:17:43.252Z,18.87
2023-03-04T10:18:57.699Z,17.06
2023-03-04T10:20:28.005Z,18.72
2023-03-04T10:21:34.166Z,18.68
2023-03-04T10:22:45.921Z,17.73
2023-03-04T10:23:48.744Z,19.17
2023-03-04T10:24:57.749Z,18.66
2023-03-04T10:26:04.386Z,18.18
2023-03-04T10:27:10.061Z,19.58
2023-03-04T10:28:17.610Z,18.02
2023-03-04T10:29:23.150Z,18.44
2023-03-04T10:30:55.166Z,19.04
2023-03-04T10:32:59.291Z,18.30
2023-03-04T10:34:02.950Z,17.23
2023-03-04T10:35:08.437Z,18.77
2023-03-04T10:36:32.566Z,17.65
2023-03-04T10:37:50.040Z,16.22
2023-03-04T10:39:13.921Z,16.84
2023-03-04T10:40:24.541Z,17.46
2023-03-04T10:41:29.406Z,17.18
2023-03-04T10:42:33.636Z,14.89
2023-03-04T10:43:36.504Z,15.48
2023-03-04T10:44:42.168Z,15.21
2023-03-04T10:45:45.587Z,14.86
2023-03-04T10:46:48.997Z,14.21
2023-03-04T10:47:53.422Z,18.19
2023-03-04T10:48:55.952Z,15.91
2023-03-04T10:50:00.882Z,15.29
2023-03-04T10:51:25.151Z,16.00
2023-03-04T10:52:42.322Z,15.18
2023-03-04T10:53:48.344Z,16.08
2023-03-04T10:54:54.062Z,15.68
2023-03-04T10:55:56.193Z,15.14
2023-03-04T10:57:08.193Z,14.93
2023-03-04T11:00:33.814Z,14.46
2023-03-04T11:01:36.763Z,16.87
2023-03-04T11:02:38.889Z,15.66
2023-03-04T11:03:44.718Z,16.83
2023-03-04T11:04:53.648Z,15.19
2023-03-04T11:06:21.781Z,15.31
2023-03-04T11:07:26.417Z,14.97
2023-03-04T11:08:29.598Z,14.87
2023-03-04T11:09:31.499Z,15.79
2023-03-04T11:10:40.903Z,14.49
2023-03-04T11:11:43.838Z,13.81
2023-03-04T11:13:06.677Z,13.96
2023-03-04T11:14:15.847Z,14.32
2023-03-04T11:15:23.464Z,13.36
2023-03-04T11:16:28.861Z,14.58
2023-03-04T11:17:43.882Z,15.02
2023-03-04T11:18:55.059Z,14.57
2023-03-04T11:20:06.514Z,14.51
2023-03-04T11:22:15.901Z,15.21
2023-03-04T11:23:21.603Z,13.86
2023-03-04T11:24:29.802Z,14.93
2023-03-04T11:25:38.706Z,14.36
2023-03-04T11:26:45.038Z,14.96
2023-03-04T11:27:50.804Z,14.25
2023-03-04T11:28:59.328Z,14.93
2023-03-04T11:30:10.908Z,13.68
2023-03-04T11:31:22.958Z,15.03
2023-03-04T11:32:32.403Z,14.02
2023-03-04T11:33:44.201Z,14.66
2023-03-04T11:36:30.294Z,14.58
2023-03-04T11:37:42.569Z,15.43
2023-03-04T11:38:48.364Z,15.03
2023-03-04T11:40:00.209Z,14.40
2023-03-04T11:41:27.259Z,15.62
2023-03-04T11:42:36.190Z,15.44
2023-03-04T11:43:41.142Z,15.49
2023-03-04T11:44:43.601Z,15.37
2023-03-04T11:46:10.834Z,17.04
2023-03-04T11:47:42.468Z,14.93
2023-03-04T11:48:53.798Z,14.26
2023-03-04T11:50:16.269Z,14.31
2023-03-04T11:51:40.636Z,13.53
2023-03-04T11:53:07.096Z,13.78
2023-03-04T11:54:18.758Z,13.47
2023-03-04T11:55:45.656Z,14.43
2023-03-04T11:57:17.536Z,14.66
2023-03-04T12:00:53.567Z,15.06
2023-03-04T12:02:05.193Z,13.86
2023-03-04T12:04:24.391Z,13.33
2023-03-04T12:05:56.361Z,13.51
2023-03-04T12:07:28.336Z,13.40
2023-03-04T12:08:55.874Z,13.57
2023-03-04T12:10:18.567Z,14.87
2023-03-04T12:11:40.929Z,14.34
2023-03-04T12:13:05.107Z,13.86
2023-03-04T12:14:23.160Z,13.86
2023-03-04T12:15:32.188Z,13.38
2023-03-04T12:16:40.850Z,16.39
2023-03-04T12:17:49.425Z,15.20
2023-03-04T12:19:04.482Z,13.94
2023-03-04T12:20:23.024Z,13.87
2023-03-04T12:21:34.772Z,14.49
2023-03-04T12:22:52.862Z,14.72
2023-03-04T12:24:15.885Z,14.01
2023-03-04T12:25:28.543Z,13.67
2023-03-04T12:26:52.598Z,14.26
2023-03-04T12:28:10.067Z,15.04
2023-03-04T12:29:32.414Z,14.81
2023-03-04T12:30:47.610Z,16.23
2023-03-04T12:31:56.092Z,14.64
2023-03-04T12:33:14.287Z,14.08
2023-03-04T12:34:35.217Z,14.48
2023-03-04T12:35:44.148Z,13.82
2023-03-04T12:37:17.065Z,14.06
2023-03-04T12:38:28.433Z,13.98
2023-03-04T12:39:34.102Z,13.58
2023-03-04T12:40:48.823Z,14.17
2023-03-04T12:42:09.488Z,13.83
2023-03-04T12:43:48.671Z,13.68
2023-03-04T12:45:14.696Z,14.06
2023-03-04T12:46:42.248Z,14.44
2023-03-04T12:47:58.433Z,18.89
2023-03-04T12:49:23.722Z,15.27
2023-03-04T12:50:32.486Z,14.96
2023-03-04T12:54:16.661Z,14.58
2023-03-04T12:55:22.438Z,13.82
2023-03-04T12:56:43.277Z,14.64
2023-03-04T12:57:48.193Z,16.04
2023-03-04T12:58:51.154Z,14.43
2023-03-04T13:00:15.400Z,15.31
2023-03-04T13:01:27.174Z,15.32
2023-03-04T13:02:33.078Z,14.83
2023-03-04T13:03:46.293Z,15.41
2023-03-04T13:04:55.154Z,15.18
2023-03-04T13:06:30.299Z,14.82
2023-03-04T13:08:04.866Z,13.99
2023-03-04T13:09:16.933Z,15.20
2023-03-04T13:10:19.711Z,16.28
2023-03-04T13:11:31.515Z,14.76
2023-03-04T13:15:12.551Z,15.03
2023-03-04T13:16:21.510Z,14.48
2023-03-04T13:17:48.416Z,13.38
2023-03-04T13:18:50.466Z,15.40
2023-03-04T13:19:59.614Z,13.68
2023-03-04T13:21:08.548Z,14.10
2023-03-04T13:22:41.209Z,12.48
2023-03-04T13:23:44.780Z,12.19
2023-03-04T13:24:48.677Z,12.82
2023-03-04T13:26:00.406Z,13.48
2023-03-04T13:27:22.634Z,13.37
2023-03-04T13:31:00.338Z,13.75
2023-03-04T13:32:06.091Z,13.77
2023-03-04T13:33:11.966Z,13.16
2023-03-04T13:36:59.951Z,12.86
2023-03-04T13:38:04.998Z,13.43
2023-03-04T13:39:19.886Z,12.76
2023-03-04T13:40:34.641Z,13.87
2023-03-04T13:41:48.692Z,12.94
2023-03-04T13:42:50.756Z,14.16
2023-03-04T13:44:02.930Z,12.99
2023-03-04T13:45:08.808Z,13.41
2023-03-04T13:46:24.193Z,13.51
2023-03-04T13:49:41.667Z,12.73
2023-03-04T13:50:47.528Z,13.24
2023-03-04T13:51:50.241Z,13.63
2023-03-04T13:52:52.609Z,13.89
2023-03-04T13:54:01.504Z,13.24
2023-03-04T13:55:36.986Z,12.98
2023-03-04T13:56:52.676Z,13.94
2023-03-04T13:57:56.030Z,13.25
2023-03-04T13:59:09.852Z,12.91
2023-03-04T14:01:25.455Z,12.33
2023-03-04T14:02:31.207Z,12.46
2023-03-04T14:03:34.950Z,12.91
2023-03-04T14:04:40.000Z,13.08
2023-03-04T14:05:42.025Z,13.45
2023-03-04T14:09:28.647Z,13.14
2023-03-04T14:10:32.757Z,13.10
2023-03-04T14:12:53.687Z,14.02
2023-03-04T14:13:58.766Z,13.64
2023-03-04T14:15:04.748Z,12.93
2023-03-04T14:16:08.763Z,12.81
2023-03-04T14:17:15.121Z,13.08
2023-03-04T14:18:18.314Z,13.36
2023-03-04T14:19:46.161Z,13.64
2023-03-04T14:20:50.596Z,13.63
2023-03-04T14:21:54.097Z,13.38
2023-03-04T14:22:57.745Z,13.58
2023-03-04T14:24:03.438Z,13.85
2023-03-04T14:25:08.775Z,14.42
2023-03-04T14:26:17.203Z,14.46
2023-03-04T14:27:19.302Z,15.85
2023-03-04T14:28:21.262Z,14.53
2023-03-04T14:29:26.282Z,14.31
2023-03-04T14:30:41.684Z,13.73
2023-03-04T14:31:36.519Z,13.45
2023-03-04T14:32:41.890Z,13.58
2023-03-04T14:33:47.500Z,14.00
2023-03-04T14:34:57.766Z,13.11
2023-03-04T14:36:02.042Z,14.51